Time;durP1;ratioP1;P1;durP2;ratioP2;P2;SDS_P1;SDS_P2;PMS_P1;PMS_P2;Temp;Humidity;BMP_temperature;BMP_pressure;BME280_temperature;BME280_humidity;BME280_pressure;Samples;Min_cycle;Max_cycle;Signal;HPM_P1;HPM_P2
2021/10/15 00:02:25;;;;;;;9.02;5.40;;;14.00;95.00;;;;;;4981497;28;20476;-86
2021/10/15 00:04:51;;;;;;;8.63;4.75;;;14.00;95.00;;;;;;5014043;28;20026;-85
2021/10/15 00:07:16;;;;;;;11.65;5.07;;;14.00;95.10;;;;;;5004784;28;20026;-86
2021/10/15 00:09:42;;;;;;;8.38;5.45;;;14.00;95.10;;;;;;4979992;28;20030;-85
2021/10/15 00:12:08;;;;;;;10.93;5.22;;;14.00;95.10;;;;;;4964540;28;20399;-85
2021/10/15 00:14:33;;;;;;;10.45;5.15;;;14.00;95.10;;;;;;5013206;28;20360;-86
2021/10/15 00:16:59;;;;;;;8.82;5.45;;;13.90;95.00;;;;;;4995870;28;20030;-86
2021/10/15 00:19:25;;;;;;;9.45;5.70;;;13.90;95.20;;;;;;4992603;28;20034;-85
2021/10/15 00:21:50;;;;;;;9.27;5.68;;;13.90;95.20;;;;;;4972768;28;20035;-86
2021/10/15 00:24:16;;;;;;;7.97;5.03;;;13.90;95.20;;;;;;4996073;28;20073;-85
2021/10/15 00:26:42;;;;;;;9.35;5.68;;;13.90;95.30;;;;;;4998806;28;20077;-86
2021/10/15 00:29:09;;;;;;;8.63;5.35;;;13.90;95.30;;;;;;4995192;28;20043;-84
2021/10/15 00:31:35;;;;;;;10.18;5.38;;;13.90;95.20;;;;;;4982783;28;20033;-86
2021/10/15 00:34:01;;;;;;;8.43;5.60;;;13.90;95.30;;;;;;4982738;28;20428;-87
2021/10/15 00:36:26;;;;;;;8.27;5.53;;;13.90;95.30;;;;;;5016615;28;20076;-87
2021/10/15 00:38:52;;;;;;;8.73;5.68;;;13.90;95.30;;;;;;5012272;28;20019;-87
2021/10/15 00:41:18;;;;;;;9.95;6.07;;;13.90;95.40;;;;;;4982873;28;20026;-88
2021/10/15 00:44:02;;;;;;;8.02;5.07;;;13.90;95.40;;;;;;5000535;28;20064;-87
2021/10/15 00:46:29;;;;;;;10.00;5.32;;;13.90;95.40;;;;;;4998793;28;20032;-87
2021/10/15 00:48:54;;;;;;;9.07;5.68;;;13.90;95.40;;;;;;4998817;28;20030;-86
2021/10/15 00:51:20;;;;;;;9.45;5.55;;;13.90;95.50;;;;;;5014910;28;20029;-86
2021/10/15 00:53:47;;;;;;;8.68;4.72;;;13.90;95.50;;;;;;4966295;28;20022;-86
2021/10/15 00:56:13;;;;;;;7.07;5.20;;;13.90;95.50;;;;;;4998412;28;20113;-85
2021/10/15 00:58:42;;;;;;;8.40;5.28;;;13.90;95.40;;;;;;4982701;28;20398;-87
2021/10/15 01:01:08;;;;;;;8.77;5.38;;;13.90;95.50;;;;;;4983013;28;20489;-89
2021/10/15 01:03:35;;;;;;;7.63;4.97;;;13.90;95.50;;;;;;4982515;28;20040;-89
2021/10/15 01:06:01;;;;;;;8.05;4.47;;;13.80;95.60;;;;;;4982639;28;20537;-89
2021/10/15 01:08:28;;;;;;;11.60;5.65;;;13.80;95.60;;;;;;4966747;28;20026;-90
2021/10/15 01:10:55;;;;;;;8.65;5.30;;;13.80;95.60;;;;;;4989262;28;20026;-89
2021/10/15 01:13:22;;;;;;;8.18;5.32;;;13.80;95.70;;;;;;4998615;28;20032;-85
2021/10/15 01:15:47;;;;;;;9.70;5.07;;;13.80;95.70;;;;;;4982274;28;20029;-85
2021/10/15 01:18:14;;;;;;;10.75;5.95;;;13.80;95.70;;;;;;5017151;28;20383;-85
2021/10/15 01:20:42;;;;;;;8.98;5.55;;;13.80;95.80;;;;;;4988693;28;20445;-85
2021/10/15 01:23:08;;;;;;;11.25;6.43;;;13.80;95.90;;;;;;5013372;28;20251;-87
2021/10/15 01:25:35;;;;;;;9.75;5.25;;;13.80;95.80;;;;;;4998706;28;20054;-87
2021/10/15 01:28:02;;;;;;;7.43;5.07;;;13.80;95.90;;;;;;4982692;28;20505;-87
2021/10/15 01:30:29;;;;;;;8.85;5.60;;;13.80;95.90;;;;;;5002680;28;20390;-87
2021/10/15 01:32:54;;;;;;;7.25;5.22;;;13.80;95.90;;;;;;4994843;28;20026;-87
2021/10/15 01:35:23;;;;;;;8.85;5.22;;;13.80;96.00;;;;;;4994254;28;20029;-86
2021/10/15 01:37:49;;;;;;;9.15;6.00;;;13.80;96.10;;;;;;4989700;28;20108;-86
2021/10/15 01:40:14;;;;;;;9.35;5.63;;;13.80;96.10;;;;;;4978377;28;20114;-87
2021/10/15 01:42:55;;;;;;;9.02;6.30;;;13.80;96.10;;;;;;4971914;28;20073;-86
2021/10/15 01:45:26;;;;;;;11.48;6.30;;;13.80;96.10;;;;;;4997536;28;20029;-87
2021/10/15 01:47:53;;;;;;;10.10;5.90;;;13.80;96.10;;;;;;4997515;28;20022;-85
2021/10/15 01:50:20;;;;;;;9.67;5.80;;;13.80;96.30;;;;;;5013833;28;20429;-86
2021/10/15 01:52:46;;;;;;;10.10;6.80;;;13.80;96.30;;;;;;4981371;28;20482;-85
2021/10/15 01:55:12;;;;;;;8.15;5.70;;;13.80;96.20;;;;;;5013736;28;20022;-86
2021/10/15 01:57:40;;;;;;;10.40;6.43;;;13.70;96.20;;;;;;4993509;28;20104;-86
2021/10/15 02:00:08;;;;;;;12.02;6.40;;;13.80;96.30;;;;;;5010721;28;20450;-86
2021/10/15 02:02:35;;;;;;;10.65;6.63;;;13.70;96.30;;;;;;4991908;28;20044;-86
2021/10/15 02:05:02;;;;;;;10.10;6.47;;;13.70;96.40;;;;;;4997472;28;20026;-89
2021/10/15 02:07:27;;;;;;;9.13;5.95;;;13.70;96.40;;;;;;5010143;28;20116;-89
2021/10/15 02:09:53;;;;;;;14.27;6.03;;;13.70;96.50;;;;;;4990132;28;20018;-89
2021/10/15 02:12:19;;;;;;;9.15;6.60;;;13.70;96.50;;;;;;4984388;28;20057;-89
2021/10/15 02:14:45;;;;;;;8.25;5.78;;;13.70;96.60;;;;;;4998780;28;20030;-87
2021/10/15 02:17:10;;;;;;;9.45;6.25;;;13.80;96.60;;;;;;4980846;28;20501;-88
2021/10/15 02:19:36;;;;;;;8.95;6.28;;;13.70;96.60;;;;;;4980839;28;20030;-87
2021/10/15 02:22:02;;;;;;;11.05;6.50;;;13.70;96.60;;;;;;4980791;28;20099;-87
2021/10/15 02:24:29;;;;;;;9.32;6.07;;;13.70;96.60;;;;;;5010392;28;20145;-87
2021/10/15 02:26:55;;;;;;;9.45;6.32;;;13.70;96.60;;;;;;4995952;28;20038;-85
2021/10/15 02:29:21;;;;;;;10.43;6.57;;;13.70;96.60;;;;;;4985015;28;20061;-86
2021/10/15 02:31:47;;;;;;;10.63;7.03;;;13.70;96.70;;;;;;4997601;28;20037;-86
2021/10/15 02:34:12;;;;;;;12.07;6.50;;;13.70;96.70;;;;;;5013345;28;20024;-86
2021/10/15 02:36:38;;;;;;;8.77;6.38;;;13.70;96.70;;;;;;4965203;28;20034;-85
2021/10/15 02:39:05;;;;;;;10.02;7.00;;;13.70;96.70;;;;;;4981382;28;20434;-86
2021/10/15 02:41:31;;;;;;;8.88;6.45;;;13.70;96.80;;;;;;5013779;28;20072;-87
2021/10/15 02:43:57;;;;;;;9.40;6.25;;;13.70;96.80;;;;;;4981304;28;20026;-87
2021/10/15 02:46:22;;;;;;;11.45;6.60;;;13.70;96.80;;;;;;4981923;28;20034;-86
2021/10/15 02:48:48;;;;;;;10.80;7.40;;;13.70;96.80;;;;;;4997708;28;20368;-88
2021/10/15 02:51:14;;;;;;;12.00;6.88;;;13.60;96.80;;;;;;4981558;28;20117;-88
2021/10/15 02:53:40;;;;;;;10.60;6.57;;;13.60;96.80;;;;;;4981207;28;20084;-87
2021/10/15 02:56:06;;;;;;;10.32;6.65;;;13.60;96.90;;;;;;4997502;28;20490;-90
2021/10/15 02:58:33;;;;;;;9.00;6.32;;;13.60;96.80;;;;;;4981138;28;20022;-89
2021/10/15 03:00:59;;;;;;;11.63;7.53;;;13.60;96.90;;;;;;4981243;28;20482;-89
2021/10/15 03:03:24;;;;;;;11.98;7.55;;;13.60;96.90;;;;;;4993976;28;20058;-89
2021/10/15 03:05:50;;;;;;;12.45;6.90;;;13.60;97.00;;;;;;4990893;28;20387;-88
2021/10/15 03:08:16;;;;;;;9.98;6.72;;;13.60;97.00;;;;;;4996405;28;20053;-87
2021/10/15 03:10:43;;;;;;;12.35;6.95;;;13.50;97.00;;;;;;4993438;28;20099;-88
2021/10/15 03:13:08;;;;;;;11.15;6.28;;;13.50;97.00;;;;;;4980081;28;20030;-87
2021/10/15 03:15:34;;;;;;;13.00;7.10;;;13.50;97.10;;;;;;4983498;28;20075;-87
2021/10/15 03:18:00;;;;;;;13.90;8.25;;;13.50;97.10;;;;;;5000376;28;20057;-85
2021/10/15 03:20:25;;;;;;;12.23;7.20;;;13.50;97.10;;;;;;4983652;28;20014;-86
2021/10/15 03:22:51;;;;;;;12.10;7.40;;;13.50;97.10;;;;;;4983637;28;20071;-85
2021/10/15 03:25:16;;;;;;;10.88;6.90;;;13.50;97.20;;;;;;4999395;28;20531;-86
2021/10/15 03:27:42;;;;;;;11.20;7.10;;;13.50;97.30;;;;;;4980243;28;20030;-86
2021/10/15 03:30:09;;;;;;;10.60;6.90;;;13.40;97.20;;;;;;5006418;28;20399;-86
2021/10/15 03:32:35;;;;;;;10.77;6.88;;;13.50;97.30;;;;;;4999214;28;20104;-86
2021/10/15 03:35:00;;;;;;;15.05;7.70;;;13.40;97.30;;;;;;4984428;28;20022;-85
2021/10/15 03:37:27;;;;;;;10.70;7.20;;;13.50;97.40;;;;;;5000907;28;20522;-86
2021/10/15 03:39:53;;;;;;;11.23;6.90;;;13.50;97.40;;;;;;5016216;28;20030;-85
2021/10/15 03:42:21;;;;;;;11.93;7.65;;;13.40;97.30;;;;;;4999351;28;20026;-85
2021/10/15 03:44:46;;;;;;;12.45;7.60;;;13.40;97.40;;;;;;4983428;28;20029;-85
2021/10/15 03:47:13;;;;;;;12.05;7.75;;;13.40;97.40;;;;;;4999673;28;20069;-86
2021/10/15 03:49:39;;;;;;;12.68;7.25;;;13.40;97.40;;;;;;5007966;28;20018;-85
2021/10/15 03:52:05;;;;;;;12.65;7.25;;;13.40;97.40;;;;;;4999772;28;20030;-85
2021/10/15 03:54:31;;;;;;;11.50;7.68;;;13.40;97.50;;;;;;5002966;28;20010;-85
2021/10/15 03:56:57;;;;;;;14.38;8.25;;;13.40;97.50;;;;;;4983762;28;20022;-86
2021/10/15 03:59:22;;;;;;;12.73;7.40;;;13.40;97.50;;;;;;4983446;28;20033;-86
2021/10/15 04:01:49;;;;;;;10.05;7.00;;;13.50;97.60;;;;;;5018714;28;20021;-88
2021/10/15 04:04:14;;;;;;;13.80;7.80;;;13.40;97.60;;;;;;4993958;28;20033;-87
2021/10/15 04:06:40;;;;;;;11.07;7.55;;;13.40;97.50;;;;;;5003970;28;20038;-87
2021/10/15 04:09:06;;;;;;;11.13;8.30;;;13.40;97.50;;;;;;4996564;28;20553;-86
2021/10/15 04:11:31;;;;;;;12.00;7.45;;;13.50;97.60;;;;;;5003711;28;20072;-87
2021/10/15 04:13:59;;;;;;;10.50;7.13;;;13.50;97.60;;;;;;4999508;28;20018;-87
2021/10/15 04:16:25;;;;;;;13.43;7.07;;;13.40;97.60;;;;;;5004714;28;20084;-87
2021/10/15 04:19:44;;;;;;;11.98;6.75;;;13.50;97.70;;;;;;5015783;28;20108;-88
2021/10/15 04:22:10;;;;;;;11.45;7.90;;;13.50;97.70;;;;;;5018241;28;20030;-88
2021/10/15 04:24:42;;;;;;;8.57;6.70;;;13.50;97.80;;;;;;4986559;28;20030;-88
2021/10/15 04:27:08;;;;;;;17.20;8.65;;;13.50;97.80;;;;;;4989390;28;20495;-88
2021/10/15 04:29:34;;;;;;;13.35;7.95;;;13.50;97.80;;;;;;4999758;28;20479;-87
2021/10/15 04:32:00;;;;;;;13.15;7.38;;;13.50;97.80;;;;;;5016577;28;20375;-87
2021/10/15 04:34:26;;;;;;;11.73;7.47;;;13.50;97.90;;;;;;5014125;28;20018;-86
2021/10/15 04:36:52;;;;;;;13.93;8.45;;;13.50;97.90;;;;;;5004305;28;20106;-85
2021/10/15 04:39:19;;;;;;;11.98;7.88;;;13.50;97.90;;;;;;5001696;28;20052;-85
2021/10/15 04:41:44;;;;;;;10.98;7.47;;;13.50;97.90;;;;;;5019301;28;20112;-85
2021/10/15 04:44:10;;;;;;;13.23;8.23;;;13.50;97.90;;;;;;5003123;28;20478;-85
2021/10/15 04:46:36;;;;;;;10.30;7.88;;;13.50;97.90;;;;;;4991494;28;20121;-85
2021/10/15 04:49:01;;;;;;;10.68;7.25;;;13.50;97.90;;;;;;5008885;28;20025;-85
2021/10/15 04:51:28;;;;;;;10.63;7.43;;;13.50;98.00;;;;;;5013467;28;20026;-85
2021/10/15 04:53:53;;;;;;;12.50;8.82;;;13.60;98.00;;;;;;5000298;28;20164;-85
2021/10/15 04:56:19;;;;;;;15.23;9.57;;;13.60;97.90;;;;;;5003759;28;20049;-89
2021/10/15 04:58:45;;;;;;;13.75;7.90;;;13.50;98.00;;;;;;4994590;28;20093;-89
2021/10/15 05:01:10;;;;;;;15.02;8.90;;;13.60;98.00;;;;;;5007154;28;20092;-85
2021/10/15 05:03:36;;;;;;;11.23;7.60;;;13.60;98.10;;;;;;5015637;28;20029;-85
2021/10/15 05:06:02;;;;;;;16.40;8.63;;;13.60;98.10;;;;;;5013641;28;20099;-85
2021/10/15 05:08:31;;;;;;;14.60;8.70;;;13.60;98.10;;;;;;5005694;28;20466;-87
2021/10/15 05:10:57;;;;;;;13.82;8.57;;;13.60;98.20;;;;;;4994481;28;20403;-87
2021/10/15 05:13:23;;;;;;;13.02;9.52;;;13.60;98.20;;;;;;4983132;28;20018;-87
2021/10/15 05:15:52;;;;;;;15.52;9.65;;;13.60;98.20;;;;;;4982392;28;20568;-87
2021/10/15 05:18:18;;;;;;;13.65;9.27;;;13.60;98.30;;;;;;4998136;28;20029;-85
2021/10/15 05:20:45;;;;;;;17.35;9.27;;;13.60;98.30;;;;;;4998318;28;20026;-85
2021/10/15 05:23:11;;;;;;;15.68;10.70;;;13.60;98.30;;;;;;5007524;28;20085;-85
2021/10/15 05:25:37;;;;;;;13.05;8.70;;;13.60;98.30;;;;;;5024900;28;20052;-85
2021/10/15 05:28:04;;;;;;;14.02;9.23;;;13.70;98.40;;;;;;5005134;28;20030;-86
2021/10/15 05:30:30;;;;;;;16.67;9.00;;;13.60;98.40;;;;;;5016969;28;20021;-86
2021/10/15 05:32:57;;;;;;;13.13;9.25;;;13.70;98.40;;;;;;5007541;28;20471;-85
2021/10/15 05:35:23;;;;;;;15.20;9.85;;;13.60;98.50;;;;;;4998385;28;20096;-86
2021/10/15 05:37:49;;;;;;;16.73;9.07;;;13.60;98.50;;;;;;4997479;28;20018;-84
2021/10/15 05:40:15;;;;;;;14.48;9.80;;;13.60;98.50;;;;;;5011178;28;20018;-85
2021/10/15 05:42:45;;;;;;;14.85;10.10;;;13.60;98.80;;;;;;5014824;28;20467;-86
2021/10/15 05:45:11;;;;;;;14.15;9.98;;;13.60;98.60;;;;;;5013546;28;20033;-85
2021/10/15 05:47:37;;;;;;;13.80;9.68;;;13.60;98.60;;;;;;4985755;28;20022;-85
2021/10/15 05:50:03;;;;;;;16.40;10.50;;;13.60;98.60;;;;;;4977446;28;20507;-86
2021/10/15 05:52:35;;;;;;;15.23;8.90;;;13.60;98.60;;;;;;4976038;28;20034;-85
2021/10/15 05:55:21;;;;;;;15.18;10.25;;;13.60;98.70;;;;;;4997365;28;20033;-85
2021/10/15 06:00:34;;;;;;;19.05;9.82;;;13.60;98.70;;;;;;4994560;28;20029;-86
2021/10/15 06:03:01;;;;;;;14.25;9.57;;;13.60;98.70;;;;;;4962430;28;20018;-89
2021/10/15 06:16:35;;;;;;;14.25;9.38;;;13.60;98.80;;;;;;4978177;28;20026;-85
2021/10/15 06:19:06;;;;;;;;;;;13.60;98.90;;;;;;5000814;28;20025;-87
2021/10/15 06:21:32;;;;;;;14.32;9.85;;;13.60;98.80;;;;;;5028780;28;19913;-87
2021/10/15 06:23:58;;;;;;;18.38;9.77;;;13.60;98.90;;;;;;4988896;28;20034;-87
2021/10/15 06:26:24;;;;;;;15.65;10.60;;;13.60;98.90;;;;;;5021899;28;20050;-87
2021/10/15 06:28:50;;;;;;;14.52;9.63;;;13.60;98.90;;;;;;4995967;28;20030;-87
2021/10/15 06:31:16;;;;;;;14.93;10.57;;;13.60;98.90;;;;;;4997677;28;20065;-89
2021/10/15 06:33:50;;;;;;;15.82;10.30;;;13.60;98.90;;;;;;5027536;28;20063;-89
2021/10/15 06:36:16;;;;;;;14.90;10.73;;;13.60;98.90;;;;;;5003484;28;20026;-89
2021/10/15 06:38:42;;;;;;;15.05;10.68;;;13.70;99.00;;;;;;5001064;28;20487;-89
2021/10/15 06:41:07;;;;;;;15.45;10.18;;;13.60;99.00;;;;;;4997325;28;20072;-86
2021/10/15 06:43:33;;;;;;;14.68;10.68;;;13.60;99.00;;;;;;5009846;28;20033;-85
2021/10/15 06:45:59;;;;;;;16.60;11.05;;;13.70;99.00;;;;;;4994148;28;20540;-86
2021/10/15 06:48:27;;;;;;;19.42;10.95;;;13.70;99.10;;;;;;4996579;28;20143;-88
2021/10/15 06:50:53;;;;;;;16.95;10.68;;;13.70;99.20;;;;;;5013625;28;20096;-88
2021/10/15 06:53:19;;;;;;;15.65;11.55;;;13.70;99.30;;;;;;5001577;28;20061;-89
2021/10/15 06:55:47;;;;;;;15.77;11.02;;;13.70;99.40;;;;;;5033458;28;20022;-89
2021/10/15 06:58:13;;;;;;;16.13;11.95;;;13.70;99.50;;;;;;5013763;28;20550;-90
2021/10/15 07:00:42;;;;;;;16.77;10.95;;;13.70;99.60;;;;;;5001395;28;20030;-87
2021/10/15 07:03:16;;;;;;;16.25;11.30;;;13.70;99.70;;;;;;5017493;28;20015;-88
2021/10/15 07:05:50;;;;;;;20.33;13.18;;;13.70;99.80;;;;;;5001311;28;20036;-88
2021/10/15 07:08:16;;;;;;;16.90;11.30;;;13.70;99.90;;;;;;5010664;28;20072;-88
2021/10/15 07:10:42;;;;;;;13.85;10.55;;;13.70;99.90;;;;;;4994993;28;20402;-88
2021/10/15 07:13:15;;;;;;;18.25;11.02;;;13.70;99.90;;;;;;5037681;28;20022;-89
2021/10/15 07:15:46;;;;;;;14.88;9.82;;;13.70;99.90;;;;;;4991472;28;20375;-88
2021/10/15 07:18:14;;;;;;;12.30;7.15;;;13.70;99.90;;;;;;4989856;28;20026;-89
2021/10/15 07:20:47;;;;;;;7.40;5.40;;;13.70;99.90;;;;;;5011318;28;20076;-88
2021/10/15 07:23:13;;;;;;;7.75;4.32;;;13.70;99.90;;;;;;5007532;28;20113;-88
2021/10/15 07:25:42;;;;;;;6.25;3.00;;;13.70;99.90;;;;;;5005031;28;20120;-87
2021/10/15 07:28:09;;;;;;;3.60;2.55;;;13.70;99.90;;;;;;4992755;28;20054;-88
2021/10/15 07:30:35;;;;;;;4.20;2.20;;;13.70;99.90;;;;;;5002130;28;20028;-88
2021/10/15 07:33:01;;;;;;;2.97;1.77;;;13.60;99.90;;;;;;5017604;28;20018;-86
2021/10/15 07:35:29;;;;;;;2.50;1.67;;;13.60;99.90;;;;;;4999157;28;20093;-89
2021/10/15 07:38:04;;;;;;;2.90;1.33;;;13.60;99.90;;;;;;4998686;28;20127;-88
2021/10/15 07:40:34;;;;;;;1.45;0.80;;;13.60;99.90;;;;;;4999083;28;20038;-89
2021/10/15 07:43:06;;;;;;;;;;;13.50;99.90;;;;;;5012415;28;20039;-89
2021/10/15 07:45:44;;;;;;;1.17;0.57;;;13.50;99.90;;;;;;4998381;28;19917;-89
2021/10/15 07:48:10;;;;;;;2.55;0.70;;;13.50;99.90;;;;;;4994944;28;20042;-89
2021/10/15 07:50:36;;;;;;;0.90;0.45;;;13.40;99.90;;;;;;4977902;28;20049;-89
2021/10/15 07:53:08;;;;;;;2.63;0.70;;;13.30;99.90;;;;;;5006485;28;20026;-89
2021/10/15 07:55:40;;;;;;;2.58;0.40;;;13.30;99.90;;;;;;4991945;28;20023;-89
2021/10/15 07:58:36;;;;;;;1.80;0.65;;;13.30;99.90;;;;;;4993752;28;20026;-89
2021/10/15 08:01:04;;;;;;;4.38;0.98;;;13.30;99.90;;;;;;4975823;28;20061;-87
2021/10/15 08:04:09;;;;;;;2.17;0.75;;;13.20;99.90;;;;;;4993734;28;20043;-89
2021/10/15 08:06:48;;;;;;;;;;;;;;;;;;;;;
2021/10/15 08:09:20;;;;;;;1.45;0.65;;;13.20;99.90;;;;;;4997003;28;20018;-89
2021/10/15 08:11:49;;;;;;;3.95;0.75;;;13.20;99.90;;;;;;4977273;28;20046;-88
2021/10/15 08:14:25;;;;;;;3.38;0.73;;;13.10;99.90;;;;;;5000450;28;20018;-89
2021/10/15 08:17:01;;;;;;;3.38;0.88;;;13.20;99.90;;;;;;5014136;28;20018;-89
2021/10/15 08:19:30;;;;;;;2.60;0.70;;;13.20;99.90;;;;;;4988169;28;20027;-89
2021/10/15 08:22:04;;;;;;;3.63;0.77;;;13.10;99.90;;;;;;5002534;28;20041;-88
2021/10/15 08:24:44;;;;;;;2.10;0.50;;;13.10;99.90;;;;;;5011369;28;20030;-89
2021/10/15 08:27:18;;;;;;;2.15;0.85;;;13.10;99.90;;;;;;5023393;28;20057;-89
2021/10/15 08:29:49;;;;;;;2.88;0.90;;;13.20;99.90;;;;;;5014410;28;20023;-88
2021/10/15 08:32:15;;;;;;;1.92;0.65;;;13.10;99.90;;;;;;5013261;28;20483;-88
2021/10/15 08:35:24;;;;;;;3.50;0.90;;;13.10;99.90;;;;;;4996741;28;20007;-88
2021/10/15 08:37:53;;;;;;;4.75;1.13;;;13.10;99.90;;;;;;4925241;29;20504;-89
2021/10/15 08:40:22;;;;;;;2.83;0.90;;;13.20;99.90;;;;;;4940440;29;20031;-89
2021/10/15 08:42:52;;;;;;;2.33;0.80;;;13.20;99.90;;;;;;4960823;28;20030;-90
2021/10/15 08:45:23;;;;;;;3.00;0.88;;;13.10;99.90;;;;;;5001459;28;20023;-88
2021/10/15 08:47:49;;;;;;;5.80;1.10;;;13.10;99.90;;;;;;5008724;28;20042;-88
2021/10/15 08:50:15;;;;;;;2.25;0.68;;;13.10;99.90;;;;;;4995751;28;20030;-87
2021/10/15 08:52:43;;;;;;;2.45;0.90;;;13.10;99.90;;;;;;4979506;28;20034;-89
2021/10/15 08:55:09;;;;;;;4.93;1.00;;;13.10;99.90;;;;;;4989440;28;20046;-88
2021/10/15 08:57:35;;;;;;;4.68;1.23;;;13.20;99.90;;;;;;4975535;28;20136;-88
2021/10/15 09:00:01;;;;;;;6.70;1.52;;;13.20;99.90;;;;;;4976215;28;20532;-89
2021/10/15 09:02:27;;;;;;;4.72;1.08;;;13.20;99.90;;;;;;5018946;28;20056;-89
2021/10/15 09:04:55;;;;;;;4.57;0.95;;;13.20;99.90;;;;;;5006645;28;20023;-89
2021/10/15 09:07:36;;;;;;;2.75;1.17;;;13.20;99.90;;;;;;4998853;28;20072;-89
2021/10/15 09:10:11;;;;;;;5.88;1.10;;;13.20;99.90;;;;;;4996139;28;20034;-88
2021/10/15 09:13:19;;;;;;;2.60;0.85;;;13.20;99.90;;;;;;4982401;28;20029;-89
2021/10/15 09:15:47;;;;;;;4.00;1.10;;;13.20;99.90;;;;;;5010667;28;20015;-89
2021/10/15 09:18:29;;;;;;;6.85;1.27;;;13.20;99.90;;;;;;5011835;28;20058;-88
2021/10/15 09:20:57;;;;;;;4.47;1.25;;;13.20;99.90;;;;;;5026249;28;20109;-88
2021/10/15 09:23:46;;;;;;;9.88;1.83;;;13.20;99.90;;;;;;5011538;28;20061;-89
2021/10/15 09:26:12;;;;;;;6.90;1.20;;;13.30;99.90;;;;;;5002913;28;20404;-88
2021/10/15 09:29:06;;;;;;;4.30;1.15;;;13.30;99.90;;;;;;4990719;28;20026;-89
2021/10/15 09:31:31;;;;;;;6.03;1.35;;;13.30;99.90;;;;;;4995237;28;20101;-88
2021/10/15 09:33:57;;;;;;;5.80;1.63;;;13.30;99.90;;;;;;4992038;28;20037;-88
2021/10/15 09:36:23;;;;;;;4.05;1.70;;;13.30;99.90;;;;;;5003681;28;20042;-89
2021/10/15 09:38:50;;;;;;;5.35;1.35;;;13.40;99.90;;;;;;4990212;28;20029;-88
2021/10/15 09:41:38;;;;;;;7.45;1.38;;;13.40;99.90;;;;;;5036367;22;20443;-89
2021/10/15 09:44:34;;;;;;;8.00;2.15;;;13.40;99.90;;;;;;5014531;28;20026;-88
2021/10/15 09:47:13;;;;;;;7.95;1.88;;;13.40;99.90;;;;;;5014901;28;20474;-89
2021/10/15 09:49:59;;;;;;;4.30;1.50;;;13.40;99.90;;;;;;5009570;28;20476;-88
2021/10/15 09:52:55;;;;;;;6.82;2.40;;;13.50;99.90;;;;;;5008748;28;20084;-88
2021/10/15 09:55:40;;;;;;;4.72;1.60;;;13.50;99.90;;;;;;5002524;28;20033;-90
2021/10/15 09:58:19;;;;;;;5.68;2.00;;;13.50;99.90;;;;;;5014110;28;20065;-90
2021/10/15 10:00:46;;;;;;;4.78;1.70;;;13.60;99.90;;;;;;5015773;28;20133;-90
2021/10/15 10:03:14;;;;;;;5.55;2.10;;;13.60;99.90;;;;;;5010861;28;20018;-90
2021/10/15 10:05:40;;;;;;;5.45;1.92;;;13.70;99.90;;;;;;5004579;28;20479;-89
2021/10/15 10:08:06;;;;;;;5.65;1.60;;;13.70;99.90;;;;;;4984151;28;20037;-89
2021/10/15 10:11:10;;;;;;;4.78;1.80;;;13.80;99.90;;;;;;4997908;28;20483;-89
2021/10/15 10:13:37;;;;;;;6.97;1.70;;;13.90;99.90;;;;;;5013788;28;20036;-90
2021/10/15 10:16:03;;;;;;;5.80;1.80;;;13.90;99.90;;;;;;4998712;28;20045;-89
2021/10/15 10:18:32;;;;;;;8.35;1.58;;;13.90;99.90;;;;;;4998202;28;20033;-89
2021/10/15 10:21:17;;;;;;;8.35;1.92;;;14.00;99.90;;;;;;4995014;28;20026;-89
2021/10/15 10:23:55;;;;;;;6.45;1.60;;;14.00;99.90;;;;;;4994876;28;20030;-89
2021/10/15 10:26:22;;;;;;;5.63;1.55;;;14.00;99.90;;;;;;5007319;28;20037;-89
2021/10/15 10:29:07;;;;;;;4.10;1.50;;;14.10;99.90;;;;;;4998203;28;20022;-89
2021/10/15 10:31:34;;;;;;;10.02;2.17;;;14.10;99.90;;;;;;5014358;28;20030;-90
2021/10/15 10:34:02;;;;;;;7.40;2.10;;;14.10;99.90;;;;;;4979502;28;20030;-89
2021/10/15 10:36:30;;;;;;;8.52;2.00;;;14.10;99.90;;;;;;4994707;28;20101;-89
2021/10/15 10:38:56;;;;;;;9.20;1.85;;;14.10;99.90;;;;;;4998210;28;20026;-89
2021/10/15 10:41:24;;;;;;;7.07;1.60;;;14.20;99.90;;;;;;5023883;28;20046;-89
2021/10/15 10:43:50;;;;;;;7.40;1.83;;;14.20;99.90;;;;;;5000231;28;20014;-89
2021/10/15 10:49:38;;;;;;;5.80;1.63;;;14.20;99.90;;;;;;5035509;28;20027;-90
2021/10/15 10:52:16;;;;;;;6.15;1.60;;;14.30;99.90;;;;;;5001937;28;20398;-89
2021/10/15 10:54:44;;;;;;;6.15;1.92;;;14.40;99.90;;;;;;5010669;28;20085;-89
2021/10/15 10:57:19;;;;;;;6.07;1.38;;;14.50;99.90;;;;;;4998067;28;20077;-89
2021/10/15 10:59:45;;;;;;;7.72;1.60;;;14.50;99.90;;;;;;4997651;28;20026;-89
2021/10/15 11:02:11;;;;;;;8.27;1.80;;;14.60;99.90;;;;;;4982141;28;20033;-89
2021/10/15 11:04:42;;;;;;;4.63;1.30;;;14.60;99.90;;;;;;5000728;28;20030;-89
2021/10/15 11:07:19;;;;;;;7.30;1.40;;;14.70;99.90;;;;;;5009218;28;20030;-89
2021/10/15 11:09:50;;;;;;;8.63;1.52;;;14.70;99.90;;;;;;5017362;28;20479;-89
2021/10/15 11:12:28;;;;;;;;;;;14.70;99.90;;;;;;5000621;28;20057;-89
2021/10/15 11:15:07;;;;;;;4.28;1.10;;;14.70;99.90;;;;;;4999067;28;19905;-89
2021/10/15 11:17:47;;;;;;;13.98;2.20;;;14.80;99.90;;;;;;4983082;28;20022;-89
2021/10/15 11:20:19;;;;;;;5.30;1.10;;;14.90;99.90;;;;;;4998962;28;20026;-89
2021/10/15 11:22:54;;;;;;;9.57;1.65;;;14.90;99.90;;;;;;5014105;28;20038;-89
2021/10/15 11:25:23;;;;;;;5.90;1.30;;;14.90;99.90;;;;;;5017112;28;20037;-88
2021/10/15 11:27:59;;;;;;;5.25;1.23;;;15.00;99.90;;;;;;5018171;28;20025;-89
2021/10/15 11:30:29;;;;;;;3.90;1.30;;;15.00;99.90;;;;;;5017623;28;20021;-88
2021/10/15 11:32:56;;;;;;;7.03;1.38;;;15.00;99.90;;;;;;5018145;28;20175;-88
2021/10/15 11:35:29;;;;;;;7.63;1.52;;;15.10;99.90;;;;;;5007693;28;20120;-89
2021/10/15 11:37:55;;;;;;;5.95;1.40;;;15.10;99.90;;;;;;5013764;28;20033;-88
2021/10/15 11:40:33;;;;;;;5.93;1.05;;;15.10;99.90;;;;;;5029937;28;20050;-88
2021/10/15 11:43:16;;;;;;;5.07;1.10;;;15.00;99.90;;;;;;5018886;28;20430;-88
2021/10/15 11:45:47;;;;;;;6.10;1.42;;;15.00;99.90;;;;;;5020260;28;20032;-90
2021/10/15 11:48:17;;;;;;;6.68;1.25;;;15.00;99.90;;;;;;5020672;28;20022;-90
2021/10/15 11:50:47;;;;;;;7.13;1.42;;;15.00;99.90;;;;;;5008102;28;20022;-91
2021/10/15 11:53:17;;;;;;;7.05;1.30;;;15.00;99.90;;;;;;5018569;28;20017;-90
2021/10/15 11:55:44;;;;;;;6.50;1.33;;;15.10;99.90;;;;;;5021197;28;20014;-89
2021/10/15 11:58:21;;;;;;;5.72;1.35;;;15.10;99.90;;;;;;5011463;28;20026;-89
2021/10/15 12:01:07;;;;;;;9.65;1.52;;;15.10;99.90;;;;;;5023141;28;20026;-89
2021/10/15 12:03:38;;;;;;;6.22;1.77;;;15.10;99.90;;;;;;5016114;28;20022;-89
2021/10/15 12:06:24;;;;;;;5.57;1.38;;;15.00;99.90;;;;;;5002328;28;20029;-89
2021/10/15 12:08:53;;;;;;;6.35;1.70;;;15.00;99.90;;;;;;5008059;28;20030;-88
2021/10/15 12:11:25;;;;;;;4.95;1.10;;;15.00;99.90;;;;;;5020036;28;20471;-89
2021/10/15 12:13:51;;;;;;;5.53;1.10;;;15.10;99.90;;;;;;5019902;28;20021;-88
2021/10/15 12:16:26;;;;;;;5.50;1.33;;;15.20;99.90;;;;;;5021075;28;20022;-88
2021/10/15 12:19:12;;;;;;;10.40;1.60;;;15.20;99.90;;;;;;5020983;28;20052;-88
2021/10/15 12:21:41;;;;;;;4.38;1.17;;;15.30;99.90;;;;;;5020477;28;20032;-89
2021/10/15 12:24:13;;;;;;;6.60;1.42;;;15.40;99.90;;;;;;5018321;28;20129;-85
2021/10/15 12:26:39;;;;;;;6.40;1.33;;;15.50;99.90;;;;;;5013054;28;20065;-85
2021/10/15 12:29:24;;;;;;;7.15;2.00;;;15.50;99.90;;;;;;4996294;28;20475;-85
2021/10/15 12:32:11;;;;;;;6.82;1.30;;;15.60;99.90;;;;;;5003957;28;20037;-85
2021/10/15 12:34:58;;;;;;;12.95;2.08;;;15.60;99.10;;;;;;5008460;28;20017;-89
2021/10/15 12:37:34;;;;;;;8.10;1.60;;;15.60;99.00;;;;;;5007161;28;20467;-89
2021/10/15 12:40:18;;;;;;;8.18;1.75;;;15.50;99.20;;;;;;5036291;28;20049;-90
2021/10/15 12:42:48;;;;;;;8.45;1.67;;;15.50;98.60;;;;;;5028663;28;20100;-89
2021/10/15 12:45:16;;;;;;;9.60;2.20;;;15.50;99.10;;;;;;5036179;28;20034;-88
2021/10/15 12:47:58;;;;;;;12.50;2.17;;;15.50;99.00;;;;;;5024130;28;20105;-89
2021/10/15 12:50:25;;;;;;;10.52;2.53;;;15.50;98.60;;;;;;5035199;28;20030;-88
2021/10/15 12:52:51;;;;;;;12.27;2.40;;;15.40;98.30;;;;;;5019799;28;20017;-88
2021/10/15 12:55:19;;;;;;;10.82;2.03;;;15.40;98.10;;;;;;5003764;28;20041;-88
2021/10/15 12:57:48;;;;;;;10.77;1.85;;;15.40;98.30;;;;;;4999757;28;20018;-88
2021/10/15 13:00:23;;;;;;;12.98;2.53;;;15.40;98.70;;;;;;5000390;28;20033;-88
2021/10/15 13:03:04;;;;;;;11.55;2.80;;;15.50;98.60;;;;;;4986272;28;20113;-86
2021/10/15 13:05:31;;;;;;;9.25;2.20;;;15.50;98.20;;;;;;5013247;28;20025;-85
2021/10/15 13:07:57;;;;;;;12.98;2.10;;;15.60;98.80;;;;;;5015241;28;20375;-85
2021/10/15 13:10:24;;;;;;;11.75;2.35;;;15.70;98.90;;;;;;5017097;28;20013;-85
2021/10/15 13:12:52;;;;;;;10.93;2.38;;;15.80;99.00;;;;;;4999715;28;20112;-86
2021/10/15 13:15:21;;;;;;;11.80;2.95;;;15.80;98.80;;;;;;5029995;28;20429;-85